Terminal Aerodrome Forecast
Issued by NWS

Home | Current Version | Previous Version | Text Only | Print | Product List | Glossary On
Versions: 1 2 3 4 5 6 7 8 9 10 11 12 13 14 15 16
094
FTUS43 KGRR 181740
TAFMKG
TAF
KMKG 181740Z 1818/1918 27015G25KT P6SM SCT025 BKN045
      TEMPO 1818/1820 BKN025
     FM182100 27012G20KT P6SM BKN040
     FM190200 25005KT P6SM SCT040
     FM191200 26005KT 5SM BR OVC015
     FM191600 30006KT P6SM BKN100=

USA.gov is the U.S. government's official web portal to all federal, state and local government web resources and services.